Terminal Aerodrome Forecast
Issued by NWS Chicago, IL

Home | Current Version | Previous Version | Text Only | Print | Product List | Glossary Off
Versions: 1 2 3 4 5 6 7 8 9 10 11 12 13 14 15 16 17 18 19 20 21 22 23 24 25 26 27 28 29 30 31 32

000
FTUS43 KLOT 292201 AAB
TAFRFD
TAF AMD
KRFD 292201Z 2922/3018 VRB06KT 6SM SHRA VCTS SCT020 BKN050CB
      TEMPO 2922/2924 3SM TSRA BKN020CB
     FM300100 VRB03KT P6SM BKN035
     FM300330 28005KT 5SM -SHRA BR BKN010 OVC018
     FM300700 30006KT 3SM BR VCSH SCT010 BKN030 OVC120
     FM301400 29009KT P6SM BKN035=

USA.gov is the U.S. government's official web portal to all federal, state and local government web resources and services.